• Join FlightAware (Why Join?)
  • Login
  • US Flag GB Flag 
09:41 EDT


 

Airport Tracker/Info


-or-


 

Live Flight TrackerFlight Track Log ✈ QXE2633 ✈ 28-Aug-2013 ✈ KPDX - KSMF

Flight Track Log - Related Links

Times and Time Zones

All times are in EDT time to prevent confusion due to time zone crossing. See the QXE2633 flight status page for this flight to view local times or setup timezone preferences in your user account.

Time Position Orientation Groundspeed Altitude Reporting Facility
EDT Latitude Longitude Course Direction KTS MPH feet Rate Location/Type
17:44 45.0309 -122.5067 173° South  Level Estimated
17:45 44.9512 -122.4939 174° South  Level Estimated
17:46 44.8715 -122.4812 174° South  Level Estimated
17:47 44.7918 -122.4686 174° South  Level Estimated
17:48 44.7121 -122.4559 174° South  Level Estimated
17:49 44.6324 -122.4433 174° South  Level Estimated
17:50 44.5527 -122.4308 174° South  Level Estimated
17:51 44.4729 -122.4182 174° South  Level Estimated
17:52 44.3932 -122.4057 174° South  Level Estimated
17:53 44.3135 -122.3933 174° South  Level Estimated
17:54 44.2338 -122.3809 174° South  Level Estimated
17:55 44.1541 -122.3684 174° South  Level Estimated
17:56 44.0744 -122.3561 174° South  Level Estimated
17:57 43.9947 -122.3438 174° South  Level Estimated
17:58 43.9150 -122.3315 174° South  Level Estimated
17:59 43.8352 -122.3192 174° South  Level Estimated
18:00 43.7555 -122.3070 174° South  Level Estimated
18:01 43.6758 -122.2948 174° South  Level Estimated
18:02 43.5961 -122.2826 174° South  Level Estimated
18:03 43.5163 -122.2705 174° South  Level Estimated
18:04 43.4366 -122.2584 174° South  Level Estimated
18:05 43.3569 -122.2463 174° South  Level Estimated
18:06 43.2772 -122.2343 174° South  Level Estimated
18:07 43.1974 -122.2223 174° South  Level Estimated
18:08 43.1177 -122.2103 174° South  Level Estimated
18:09 43.0380 -122.1983 174° South  Level Estimated
18:10 42.9582 -122.1864 174° South  Level Estimated
18:11 42.8785 -122.1746 174° South  Level Estimated
18:12 42.7988 -122.1627 174° South  Level Estimated
18:13 42.7191 -122.1509 174° South  Level Estimated
18:14 42.6393 -122.1391 174° South  Level Estimated
18:15 42.5667 -122.1284 174° South  Level Estimated
18:16 42.4941 -122.1177 174° South  Level Estimated
18:17 42.4215 -122.1070 174° South  Level Estimated
18:18 42.3489 -122.0964 174° South  Level Estimated
18:19 42.2763 -122.0858 174° South  Level Estimated
18:20 42.2037 -122.0752 174° South  Level Estimated
18:21 42.1310 -122.0646 174° South  Level Estimated
18:22 42.0584 -122.0541 174° South  Level Estimated
18:23 41.9858 -122.0436 174° South  Level Estimated
18:24 41.9132 -122.0331 174° South  Level Estimated
18:25 41.8399 -122.0225 174° South  Level Estimated
18:26 41.7666 -122.0120 174° South  Level Estimated
18:27 41.6933 -122.0015 174° South  Level Estimated
18:28 41.6200 -121.9910 174° South  Level Estimated
18:29 41.5466 -121.9805 174° South  Level Estimated
18:30 41.4733 -121.9701 174° South  Level Estimated
18:31 41.4000 -121.9596 174° South  Level Estimated
18:32 41.3267 -121.9492 174° South  Level Estimated
18:33 41.2534 -121.9389 174° South  Level Estimated
18:34 41.1801 -121.9285 174° South  Level Estimated
18:35 41.1068 -121.9182 174° South  Level Estimated
18:36 41.0334 -121.9079 174° South  Level Estimated
18:37 40.9601 -121.8976 174° South  Level Estimated
18:38 40.8868 -121.8873 174° South  Level Estimated
18:39 40.8135 -121.8771 174° South  Level Estimated
18:40 40.7402 -121.8669 174° South  Level Estimated
18:41 40.6668 -121.8567 174° South  Level Estimated
18:42 40.5935 -121.8465 174° South  Level Estimated
18:43 40.5202 -121.8364 174° South  Level Estimated
18:44 40.4469 -121.8263 174° South  Level Estimated
18:45 40.3735 -121.8162 174° South  Level Estimated
18:46 40.3002 -121.8061 174° South  Level Estimated
18:47 40.2269 -121.7960 174° South  Level Estimated
18:48 40.1535 -121.7860 174° South  Level Estimated
18:49 40.0802 -121.7760 174° South  Level Estimated
18:50 40.0069 -121.7660 174° South  Level Estimated
18:51 39.9332 -121.7560 180° South  Level Estimated
18:52 39.8596 -121.7459 176° South  Level Estimated
18:53 39.7876 -121.7233 166° South  Level FlightAware Approximate
18:54 39.7177 -121.6925 161° South  Level FlightAware Approximate
18:55 39.6479 -121.6617 161° South  Level FlightAware Approximate
18:56 39.5701 -121.6333 180° South  Level FlightAware Approximate
18:57 39.4964 -121.6333 180° South  Level FlightAware Approximate
18:58 39.4228 -121.6273 176° South  Level FlightAware Approximate
18:59 39.3493 -121.6199 176° South  Level FlightAware Approximate
19:00 39.2757 -121.6167 180° South  Level FlightAware Approximate
19:01 39.2021 -121.6127 174° South  Level FlightAware Approximate
19:02 39.1287 -121.6036 174° South  Level FlightAware Approximate
19:03 39.0552 -121.5936 174° South  Level FlightAware Approximate
19:04 38.9818 -121.5833 180° South  Level FlightAware Approximate
19:05 38.9080 -121.5833 180° South  Level FlightAware Approximate
19:06 38.8342 -121.5833 180° South  Level FlightAware Approximate
19:07 38.7604 -121.5833 180° South  Level FlightAware Approximate
19:08 38.6954 -121.5908 180° South  Level Estimated
19:09 38.6954 -121.5908 180° South  Level Estimated
19:10 38.6954 -121.5908 180° South  Level Estimated
19:11 38.6954 -121.5908 180° South  Level Estimated
19:12 38.6954 -121.5908 180° South  Level Estimated
19:13 38.6954 -121.5908 180° South  Level Estimated
19:14 38.6954 -121.5908 180° South  Level Estimated
19:15 38.6954 -121.5908 180° South  Level Estimated
19:16 38.6954 -121.5908 180° South  Level Estimated
19:17 38.6954 -121.5908 180° South  Level Estimated
19:18 38.6954 -121.5908 180° South  Level Estimated
19:19 38.6954 -121.5908 180° South  Level Estimated
19:20 38.6954 -121.5908 180° South  Level Estimated
19:21 38.6954 -121.5908 180° South  Level Estimated
19:22 38.6954 -121.5908 180° South  Level Estimated
19:23 38.6954 -121.5908 180° South  Level Estimated
19:24 38.6954 -121.5908 180° South  Level Estimated
19:25 38.6954 -121.5908 180° South  Level Estimated
19:26 38.6954 -121.5908 180° South  Level Estimated
19:27 38.6954 -121.5908 180° South  Level Estimated